Time;durP1;ratioP1;P1;durP2;ratioP2;P2;SDS_P1;SDS_P2;PMS_P1;PMS_P2;Temp;Humidity;BMP_temperature;BMP_pressure;BME280_temperature;BME280_humidity;BME280_pressure;Samples;Min_cycle;Max_cycle;Signal;HPM_P1;HPM_P2
2022/11/08 00:01:42;;;;;;;1.93;1.83;;;12.50;99.90;;;;;;5080949;28;20711;-80
2022/11/08 00:04:11;;;;;;;3.90;2.00;;;12.50;99.90;;;;;;5067024;28;20241;-79
2022/11/08 00:14:54;;;;;;;2.27;2.07;;;12.60;99.90;;;;;;5073401;28;20608;-80
2022/11/08 00:17:22;;;;;;;2.00;1.90;;;12.60;99.90;;;;;;5069635;28;20204;-80
2022/11/08 00:19:50;;;;;;;2.77;2.53;;;12.60;99.90;;;;;;5073903;28;20186;-80
2022/11/08 00:22:18;;;;;;;2.80;2.50;;;12.60;99.90;;;;;;5073873;28;20280;-79
2022/11/08 00:24:45;;;;;;;3.30;2.70;;;12.60;99.90;;;;;;5073184;28;20197;-80
2022/11/08 00:27:17;;;;;;;4.53;2.97;;;12.60;99.90;;;;;;5081503;28;20205;-79
2022/11/08 00:29:44;;;;;;;4.40;2.93;;;12.60;99.90;;;;;;5084599;28;20197;-79
2022/11/08 00:32:15;;;;;;;2.47;2.27;;;12.60;99.90;;;;;;5072285;28;20295;-79
2022/11/08 00:34:42;;;;;;;2.93;2.30;;;12.50;99.90;;;;;;5103748;28;20194;-79
2022/11/08 00:37:09;;;;;;;2.97;2.67;;;12.50;99.90;;;;;;5103767;28;20206;-80
2022/11/08 00:39:37;;;;;;;2.43;2.20;;;12.50;99.90;;;;;;5072828;28;20193;-81
2022/11/08 00:42:04;;;;;;;2.73;2.53;;;12.50;99.90;;;;;;5073102;28;20223;-82
2022/11/08 00:44:32;;;;;;;2.83;2.23;;;12.50;99.90;;;;;;5070944;28;20201;-81
2022/11/08 00:46:59;;;;;;;3.50;2.60;;;12.60;99.90;;;;;;5071841;28;20185;-81
2022/11/08 00:49:27;;;;;;;2.33;2.10;;;12.50;99.90;;;;;;5101618;28;20619;-80
2022/11/08 00:51:55;;;;;;;2.53;2.33;;;12.50;99.90;;;;;;5072833;28;20214;-80
2022/11/08 00:54:22;;;;;;;3.93;2.40;;;12.50;99.90;;;;;;5071895;28;20868;-81
2022/11/08 00:56:50;;;;;;;2.57;2.33;;;12.50;99.90;;;;;;5069008;28;20201;-80
2022/11/08 00:59:19;;;;;;;2.67;2.30;;;12.50;99.90;;;;;;5070788;28;20193;-81
2022/11/08 01:01:46;;;;;;;2.57;2.20;;;12.50;99.90;;;;;;5070869;28;20676;-80
2022/11/08 01:04:17;;;;;;;3.40;2.23;;;12.60;99.90;;;;;;5071155;28;20233;-78
2022/11/08 01:06:46;;;;;;;3.70;2.23;;;12.60;99.90;;;;;;5086911;28;20284;-78
2022/11/08 01:09:13;;;;;;;2.30;1.70;;;12.60;99.90;;;;;;5069945;28;20193;-78
2022/11/08 01:11:45;;;;;;;4.03;2.33;;;12.50;99.90;;;;;;5069570;28;20213;-80
2022/11/08 01:14:13;;;;;;;3.90;2.40;;;12.50;99.90;;;;;;5072897;28;20224;-80
2022/11/08 01:16:41;;;;;;;7.43;2.73;;;12.60;99.90;;;;;;5077453;28;20252;-81
2022/11/08 01:19:09;;;;;;;2.93;2.30;;;12.60;99.90;;;;;;5072285;28;20203;-81
2022/11/08 01:21:37;;;;;;;4.63;2.50;;;12.60;99.90;;;;;;5079685;28;20239;-81
2022/11/08 01:24:06;;;;;;;3.37;2.10;;;12.50;99.90;;;;;;5072941;28;20244;-81
2022/11/08 01:26:34;;;;;;;2.93;1.97;;;12.60;99.90;;;;;;5071507;28;20224;-81
2022/11/08 01:29:01;;;;;;;3.00;2.50;;;12.50;99.90;;;;;;5072197;28;20198;-78
2022/11/08 01:31:30;;;;;;;3.40;2.47;;;12.50;99.90;;;;;;5069973;28;20211;-80
2022/11/08 01:33:58;;;;;;;3.40;2.60;;;12.50;99.90;;;;;;5070470;28;20468;-78
2022/11/08 01:36:27;;;;;;;3.53;2.20;;;12.50;99.90;;;;;;5066750;28;20186;-81
2022/11/08 01:38:55;;;;;;;4.47;2.33;;;12.50;99.90;;;;;;5072398;28;20201;-80
2022/11/08 01:41:26;;;;;;;3.90;2.20;;;12.50;99.90;;;;;;5067948;28;20538;-79
2022/11/08 01:43:54;;;;;;;2.70;2.20;;;12.40;99.90;;;;;;5072240;28;20198;-79
2022/11/08 01:46:37;;;;;;;3.77;2.43;;;12.50;99.90;;;;;;5071247;28;20200;-80
2022/11/08 01:49:39;;;;;;;2.00;1.90;;;12.50;99.90;;;;;;5069999;28;20704;-80
2022/11/08 01:52:14;;;;;;;2.17;2.00;;;12.50;99.90;;;;;;5068644;28;20204;-80
2022/11/08 01:54:48;;;;;;;3.30;2.20;;;12.40;99.90;;;;;;5065215;28;20213;-79
2022/11/08 01:57:21;;;;;;;2.10;1.90;;;12.40;99.90;;;;;;5071668;28;20232;-79
2022/11/08 01:59:50;;;;;;;2.83;2.50;;;12.40;99.90;;;;;;5082280;28;20664;-80
2022/11/08 02:02:19;;;;;;;3.47;2.57;;;12.40;99.90;;;;;;5070001;28;20549;-79
2022/11/08 02:04:47;;;;;;;1.80;1.70;;;12.50;99.90;;;;;;5068185;28;20527;-79
2022/11/08 02:07:15;;;;;;;3.40;2.37;;;12.50;99.90;;;;;;5072672;28;20589;-79
2022/11/08 02:09:45;;;;;;;3.40;2.50;;;12.40;99.90;;;;;;5069321;28;20684;-79
2022/11/08 02:12:13;;;;;;;3.50;2.33;;;12.40;99.90;;;;;;5070891;28;20197;-79
2022/11/08 02:14:42;;;;;;;2.50;2.30;;;12.40;99.90;;;;;;5069500;28;20193;-78
2022/11/08 02:17:09;;;;;;;3.80;2.37;;;12.40;99.90;;;;;;5067600;28;20203;-78
2022/11/08 02:19:40;;;;;;;3.60;2.80;;;12.40;99.90;;;;;;5065607;28;20694;-78
2022/11/08 02:22:14;;;;;;;4.17;2.80;;;12.40;99.90;;;;;;5071096;28;20197;-79
2022/11/08 02:24:43;;;;;;;3.03;2.73;;;12.40;99.90;;;;;;5069527;28;20198;-78
2022/11/08 02:27:12;;;;;;;3.93;2.80;;;12.30;99.90;;;;;;5070598;28;20193;-79
2022/11/08 02:29:39;;;;;;;3.47;2.47;;;12.30;99.90;;;;;;5070562;28;20189;-79
2022/11/08 02:32:07;;;;;;;4.50;2.80;;;12.30;99.90;;;;;;5068084;28;20214;-80
2022/11/08 02:34:39;;;;;;;4.83;2.60;;;12.30;99.90;;;;;;5069611;28;20687;-80
2022/11/08 02:37:07;;;;;;;4.60;3.20;;;12.30;99.90;;;;;;5067970;28;20985;-79
2022/11/08 02:39:34;;;;;;;6.20;2.93;;;12.30;99.90;;;;;;5069234;28;20200;-80
2022/11/08 02:42:02;;;;;;;2.87;2.67;;;12.30;99.90;;;;;;5066104;28;20197;-79
2022/11/08 02:44:30;;;;;;;2.83;2.50;;;12.30;99.90;;;;;;5071197;28;20201;-79
2022/11/08 02:46:57;;;;;;;3.47;2.57;;;12.30;99.90;;;;;;5075743;28;20568;-79
2022/11/08 02:49:24;;;;;;;4.47;2.70;;;12.30;99.90;;;;;;5070572;28;20619;-79
2022/11/08 02:51:53;;;;;;;3.10;2.63;;;12.30;99.90;;;;;;5069244;28;20213;-80
2022/11/08 02:54:20;;;;;;;2.97;2.70;;;12.30;99.90;;;;;;5069002;28;20278;-80
2022/11/08 02:56:47;;;;;;;2.97;2.67;;;12.30;99.90;;;;;;5067851;28;20201;-79
2022/11/08 02:59:16;;;;;;;4.13;1.90;;;12.40;99.90;;;;;;5068589;28;20201;-79
2022/11/08 03:01:43;;;;;;;2.30;2.10;;;12.40;99.90;;;;;;5067730;28;20186;-79
2022/11/08 03:04:10;;;;;;;5.07;3.30;;;12.40;99.90;;;;;;5069482;28;20221;-80
2022/11/08 03:06:38;;;;;;;2.50;2.20;;;12.40;99.90;;;;;;5068460;28;20200;-79
2022/11/08 03:09:05;;;;;;;3.73;2.93;;;12.40;99.90;;;;;;5069000;28;20221;-79
2022/11/08 03:11:32;;;;;;;3.37;2.73;;;12.40;99.90;;;;;;5068497;28;20205;-79
2022/11/08 03:14:00;;;;;;;2.60;2.40;;;12.40;99.90;;;;;;5070368;28;20194;-79
2022/11/08 03:16:29;;;;;;;2.60;2.33;;;12.40;99.90;;;;;;5084560;28;20668;-80
2022/11/08 03:18:56;;;;;;;2.53;2.33;;;12.40;99.90;;;;;;5069417;28;20656;-79
2022/11/08 03:21:23;;;;;;;3.83;2.47;;;12.40;99.90;;;;;;5067818;28;20230;-79
2022/11/08 03:23:50;;;;;;;2.30;2.10;;;12.40;99.90;;;;;;5070718;28;20197;-80
2022/11/08 03:26:18;;;;;;;3.47;2.30;;;12.50;99.90;;;;;;5070106;28;20200;-79
2022/11/08 03:28:45;;;;;;;1.93;1.83;;;12.40;99.90;;;;;;5069525;28;20209;-79
2022/11/08 03:31:12;;;;;;;3.40;2.50;;;12.50;99.90;;;;;;5068038;28;20580;-79
2022/11/08 03:33:40;;;;;;;4.50;2.70;;;12.50;99.90;;;;;;5068000;28;20196;-80
2022/11/08 03:36:08;;;;;;;6.67;3.63;;;12.50;99.90;;;;;;5070066;28;20196;-79
2022/11/08 03:38:35;;;;;;;10.53;4.60;;;12.50;99.90;;;;;;5086114;28;20208;-79
2022/11/08 03:41:02;;;;;;;8.60;5.07;;;12.50;99.90;;;;;;5071098;28;20193;-79
2022/11/08 03:43:30;;;;;;;6.77;4.53;;;12.50;99.90;;;;;;5073462;28;20213;-79
2022/11/08 03:45:57;;;;;;;5.50;3.67;;;12.40;99.90;;;;;;5073477;28;20204;-79
2022/11/08 03:48:24;;;;;;;3.97;3.50;;;12.40;99.90;;;;;;5069635;28;20236;-80
2022/11/08 03:50:53;;;;;;;4.90;3.80;;;12.40;99.90;;;;;;5072344;28;20221;-79
2022/11/08 03:53:20;;;;;;;3.83;3.53;;;12.40;99.90;;;;;;5073943;28;20185;-80
2022/11/08 03:55:47;;;;;;;5.50;3.80;;;12.40;99.90;;;;;;5072354;28;20224;-80
2022/11/08 03:58:14;;;;;;;6.20;4.10;;;12.30;99.90;;;;;;5086961;28;20193;-80
2022/11/08 04:00:41;;;;;;;6.70;4.57;;;12.30;99.90;;;;;;5071846;28;20561;-79
2022/11/08 04:03:09;;;;;;;4.20;3.60;;;12.30;99.90;;;;;;5068951;28;20233;-79
2022/11/08 04:05:36;;;;;;;5.07;4.33;;;12.30;99.90;;;;;;5072853;28;20199;-79
2022/11/08 04:08:06;;;;;;;5.47;4.27;;;12.30;99.90;;;;;;5067801;28;20201;-79
2022/11/08 04:10:33;;;;;;;6.57;4.40;;;12.20;99.90;;;;;;5073966;28;20242;-79
2022/11/08 04:15:46;;;;;;;4.13;3.73;;;12.20;99.90;;;;;;5087558;28;20181;-78
2022/11/08 04:21:18;;;;;;;6.57;3.83;;;12.10;99.90;;;;;;5073915;28;20189;-79
2022/11/08 04:23:48;;;;;;;6.37;3.90;;;12.10;99.90;;;;;;5071777;28;20193;-79
2022/11/08 04:26:15;;;;;;;6.03;3.77;;;12.10;99.90;;;;;;5071070;28;20262;-79
2022/11/08 04:28:43;;;;;;;6.93;4.57;;;12.10;99.90;;;;;;5071923;28;20208;-79
2022/11/08 04:31:12;;;;;;;4.77;3.23;;;12.00;99.90;;;;;;5070232;28;20227;-79
2022/11/08 04:33:39;;;;;;;4.37;3.63;;;12.00;99.90;;;;;;5075985;28;20193;-79
2022/11/08 04:36:10;;;;;;;6.33;3.97;;;12.00;99.90;;;;;;5073589;28;20203;-80
2022/11/08 04:38:38;;;;;;;5.10;4.10;;;12.00;99.90;;;;;;5073321;28;20195;-79
2022/11/08 04:41:09;;;;;;;8.37;4.00;;;12.00;99.90;;;;;;5071871;28;20208;-79
2022/11/08 04:43:38;;;;;;;6.13;4.10;;;12.00;99.90;;;;;;5071464;28;20198;-79
2022/11/08 04:46:07;;;;;;;5.13;3.93;;;12.00;99.90;;;;;;5071009;28;20547;-80
2022/11/08 04:48:35;;;;;;;4.90;4.13;;;12.00;99.90;;;;;;5068805;28;20208;-80
2022/11/08 04:51:04;;;;;;;8.23;3.60;;;12.00;99.90;;;;;;5071488;28;20205;-80
2022/11/08 04:53:32;;;;;;;3.90;3.20;;;12.00;99.90;;;;;;5072237;28;20786;-80
2022/11/08 04:56:01;;;;;;;4.53;3.30;;;12.00;99.90;;;;;;5068860;28;20209;-80
2022/11/08 04:58:33;;;;;;;4.50;3.23;;;12.00;99.90;;;;;;5072729;28;20196;-80
2022/11/08 05:01:01;;;;;;;7.40;4.37;;;12.00;99.90;;;;;;5080217;28;20256;-80
2022/11/08 05:03:29;;;;;;;9.67;4.60;;;12.00;99.90;;;;;;5066742;28;20587;-80
2022/11/08 05:05:56;;;;;;;8.17;4.87;;;12.00;99.90;;;;;;5071943;28;20223;-80
2022/11/08 05:08:23;;;;;;;6.67;4.27;;;12.00;99.90;;;;;;5074649;28;20207;-80
2022/11/08 05:10:50;;;;;;;11.97;7.17;;;12.00;99.90;;;;;;5072545;28;20284;-80
2022/11/08 05:13:17;;;;;;;7.30;5.20;;;12.00;99.90;;;;;;5074990;28;20235;-80
2022/11/08 05:15:46;;;;;;;8.57;4.57;;;12.00;99.90;;;;;;5103031;28;20198;-80
2022/11/08 05:18:13;;;;;;;8.97;4.97;;;12.10;99.90;;;;;;5071441;28;20192;-81
2022/11/08 05:23:25;;;;;;;6.37;4.00;;;12.10;99.90;;;;;;5075220;28;20195;-80
2022/11/08 05:25:53;;;;;;;4.47;3.63;;;12.20;99.90;;;;;;5072528;28;20189;-79
2022/11/08 05:28:20;;;;;;;6.50;4.23;;;12.20;99.90;;;;;;5070322;28;20611;-79
2022/11/08 05:30:54;;;;;;;6.70;4.00;;;12.20;99.90;;;;;;5069863;28;20203;-79
2022/11/08 05:33:21;;;;;;;6.97;4.40;;;12.20;99.90;;;;;;5069897;28;20189;-79
2022/11/08 05:35:49;;;;;;;4.83;3.47;;;12.20;99.90;;;;;;5071226;28;20201;-80
2022/11/08 05:38:16;;;;;;;5.07;4.10;;;12.20;99.90;;;;;;5072241;28;20203;-79
2022/11/08 05:40:44;;;;;;;5.80;4.37;;;12.20;99.90;;;;;;5065818;28;20199;-80
2022/11/08 05:43:11;;;;;;;8.20;4.80;;;12.10;99.90;;;;;;5069596;28;20197;-78
2022/11/08 05:45:38;;;;;;;4.73;3.80;;;12.10;99.90;;;;;;5071453;28;20197;-80
2022/11/08 05:48:09;;;;;;;8.30;4.70;;;12.10;99.90;;;;;;5072447;28;20691;-80
2022/11/08 05:50:37;;;;;;;6.67;4.10;;;12.10;99.90;;;;;;5071348;28;20239;-79
2022/11/08 05:53:12;;;;;;;10.00;5.03;;;12.10;99.90;;;;;;5070510;28;20227;-78
2022/11/08 05:55:39;;;;;;;6.63;4.43;;;12.20;99.90;;;;;;5069204;28;20186;-79
2022/11/08 05:58:06;;;;;;;7.47;4.10;;;12.10;99.90;;;;;;5072448;28;20262;-80
2022/11/08 06:00:33;;;;;;;10.40;4.67;;;12.20;99.90;;;;;;5085087;28;20197;-79
2022/11/08 06:03:02;;;;;;;11.70;4.23;;;12.20;99.90;;;;;;5070829;28;20354;-80
2022/11/08 06:05:30;;;;;;;9.60;4.33;;;12.20;99.90;;;;;;5071821;28;20193;-80
2022/11/08 06:07:58;;;;;;;8.77;4.23;;;12.10;99.90;;;;;;5071973;28;20206;-80
2022/11/08 06:10:26;;;;;;;8.67;3.60;;;12.20;99.90;;;;;;5068676;28;20200;-79
2022/11/08 06:12:53;;;;;;;7.90;3.57;;;12.20;99.90;;;;;;5066974;28;20216;-80
2022/11/08 06:15:20;;;;;;;5.33;3.07;;;12.20;99.90;;;;;;5070541;28;20222;-78
2022/11/08 06:17:47;;;;;;;4.93;3.53;;;12.20;99.90;;;;;;5070995;28;20212;-78
2022/11/08 06:20:14;;;;;;;7.07;4.07;;;12.30;99.90;;;;;;5070160;28;20204;-79
2022/11/08 06:22:43;;;;;;;7.97;4.07;;;12.30;99.90;;;;;;5069100;28;20526;-80
2022/11/08 06:25:10;;;;;;;6.33;3.60;;;12.30;99.90;;;;;;5071304;28;20683;-78
2022/11/08 06:27:37;;;;;;;7.97;4.33;;;12.20;99.90;;;;;;5098015;28;20193;-78
2022/11/08 06:30:06;;;;;;;5.77;4.00;;;12.30;99.90;;;;;;5070278;28;20193;-79
2022/11/08 06:32:33;;;;;;;5.27;3.70;;;12.20;99.90;;;;;;5068134;28;20219;-78
2022/11/08 06:35:00;;;;;;;9.60;4.07;;;12.30;99.90;;;;;;5071610;28;20192;-78
2022/11/08 06:37:27;;;;;;;5.43;3.60;;;12.30;99.90;;;;;;5069162;28;20209;-78
2022/11/08 06:39:57;;;;;;;5.47;3.30;;;12.30;99.90;;;;;;5070499;28;20557;-79
2022/11/08 06:42:24;;;;;;;6.80;4.10;;;12.40;99.90;;;;;;5066638;28;20342;-79
2022/11/08 06:44:51;;;;;;;4.73;3.47;;;12.40;99.90;;;;;;5066529;28;20201;-80
2022/11/08 06:47:19;;;;;;;6.63;4.07;;;12.40;99.90;;;;;;5070859;28;20703;-79
2022/11/08 06:49:46;;;;;;;5.03;3.17;;;12.40;99.90;;;;;;5068906;28;20201;-80
2022/11/08 06:52:13;;;;;;;10.40;3.90;;;12.40;99.90;;;;;;5069051;28;20216;-80
2022/11/08 06:54:40;;;;;;;6.63;3.47;;;12.50;99.90;;;;;;5083587;28;20220;-79
2022/11/08 06:57:09;;;;;;;7.20;3.77;;;12.50;99.90;;;;;;5068526;28;20797;-79
2022/11/08 06:59:36;;;;;;;9.90;3.70;;;12.50;99.90;;;;;;5070469;28;20193;-80
2022/11/08 07:02:03;;;;;;;7.83;3.40;;;12.50;99.90;;;;;;5056594;28;20740;-79
2022/11/08 07:04:30;;;;;;;7.20;2.90;;;12.50;99.90;;;;;;5065725;28;20197;-79
2022/11/08 07:06:57;;;;;;;5.37;2.80;;;12.50;99.90;;;;;;5065659;28;20604;-79
2022/11/08 07:09:24;;;;;;;4.63;3.03;;;12.50;99.90;;;;;;5065298;28;20199;-79
2022/11/08 07:11:56;;;;;;;5.37;3.03;;;12.50;99.90;;;;;;5066663;28;20236;-79
2022/11/08 07:14:24;;;;;;;5.47;2.90;;;12.50;99.90;;;;;;5064639;28;20886;-79
2022/11/08 07:16:51;;;;;;;5.33;3.30;;;12.60;99.90;;;;;;5081454;28;20617;-80
2022/11/08 07:19:19;;;;;;;4.97;3.13;;;12.60;99.90;;;;;;5059052;28;20204;-79
2022/11/08 07:21:46;;;;;;;8.63;3.63;;;12.50;99.90;;;;;;5066678;28;20203;-80
2022/11/08 07:24:13;;;;;;;10.43;4.40;;;12.60;99.90;;;;;;5067910;28;20284;-79
2022/11/08 07:26:40;;;;;;;6.67;3.70;;;12.50;99.90;;;;;;5057796;28;20193;-80
2022/11/08 07:29:07;;;;;;;7.33;3.57;;;12.60;99.90;;;;;;5065901;28;20196;-80
2022/11/08 07:31:39;;;;;;;6.63;3.57;;;12.60;99.90;;;;;;5060886;28;20194;-79
2022/11/08 07:34:06;;;;;;;5.07;3.17;;;12.60;99.90;;;;;;5067688;28;20486;-80
2022/11/08 07:36:33;;;;;;;7.50;3.23;;;12.60;99.90;;;;;;5065686;28;20707;-79
2022/11/08 07:39:00;;;;;;;7.93;4.00;;;12.50;99.90;;;;;;5067382;28;20196;-78
2022/11/08 07:41:27;;;;;;;6.87;3.80;;;12.60;99.90;;;;;;5064922;28;20185;-79
2022/11/08 07:43:54;;;;;;;5.97;3.63;;;12.60;99.90;;;;;;5065579;28;20202;-80
2022/11/08 07:46:21;;;;;;;8.90;4.33;;;12.60;99.90;;;;;;5058859;28;20204;-80
2022/11/08 07:48:50;;;;;;;7.43;3.70;;;12.70;99.90;;;;;;5067046;28;20216;-80
2022/11/08 07:51:17;;;;;;;12.60;4.67;;;12.60;99.90;;;;;;5067137;28;20554;-80
2022/11/08 07:53:45;;;;;;;10.50;4.47;;;12.70;99.90;;;;;;5063247;28;20282;-80
2022/11/08 07:56:12;;;;;;;9.20;4.60;;;12.70;99.90;;;;;;5065946;28;20309;-80
2022/11/08 07:58:39;;;;;;;5.03;3.50;;;12.70;99.90;;;;;;5067469;28;20208;-80
2022/11/08 08:01:07;;;;;;;5.27;3.20;;;12.70;99.90;;;;;;5064609;28;20203;-80
2022/11/08 08:03:34;;;;;;;9.03;3.40;;;12.70;99.90;;;;;;5067129;28;20266;-79
2022/11/08 08:06:03;;;;;;;8.30;3.87;;;12.70;99.90;;;;;;5083233;28;20292;-81
2022/11/08 08:08:30;;;;;;;5.07;3.50;;;12.70;99.90;;;;;;5065560;28;20189;-79
2022/11/08 08:10:59;;;;;;;13.27;3.80;;;12.70;99.90;;;;;;5066895;28;20205;-80
2022/11/08 08:13:26;;;;;;;6.77;3.40;;;12.70;99.90;;;;;;5064270;28;20205;-79
2022/11/08 08:15:53;;;;;;;6.63;3.57;;;12.70;99.90;;;;;;5080715;28;20248;-79
2022/11/08 08:18:20;;;;;;;5.40;3.07;;;12.70;99.90;;;;;;5063827;28;20206;-79
2022/11/08 08:20:47;;;;;;;8.30;3.70;;;12.70;99.90;;;;;;5082785;28;20203;-78
2022/11/08 08:23:16;;;;;;;7.57;3.57;;;12.80;99.90;;;;;;5068366;28;20311;-80
2022/11/08 08:25:43;;;;;;;7.07;3.77;;;12.80;99.90;;;;;;5066014;28;20197;-80
2022/11/08 08:28:11;;;;;;;7.30;3.70;;;12.80;99.90;;;;;;5069547;28;20666;-79
2022/11/08 08:30:39;;;;;;;8.77;3.80;;;12.80;99.90;;;;;;5068110;28;20674;-80
2022/11/08 08:33:08;;;;;;;6.73;3.10;;;12.80;99.90;;;;;;5067053;28;20210;-79
2022/11/08 08:35:36;;;;;;;6.30;3.20;;;12.80;99.90;;;;;;5070246;28;20210;-80
2022/11/08 08:38:05;;;;;;;5.10;3.17;;;12.80;99.90;;;;;;5068136;28;20190;-80
2022/11/08 08:40:34;;;;;;;8.13;3.50;;;12.80;99.90;;;;;;5070471;28;20194;-78
2022/11/08 08:43:02;;;;;;;5.57;2.70;;;12.90;99.90;;;;;;5070896;28;20640;-80
2022/11/08 08:45:30;;;;;;;6.33;2.60;;;12.90;99.90;;;;;;5069594;28;20212;-78
2022/11/08 08:47:57;;;;;;;6.60;3.30;;;12.90;99.90;;;;;;5070856;28;20203;-79
2022/11/08 08:50:27;;;;;;;5.80;2.63;;;12.90;99.90;;;;;;5070824;28;20225;-80
2022/11/08 08:52:58;;;;;;;6.67;2.80;;;12.90;99.90;;;;;;5071975;28;20239;-79
2022/11/08 08:55:25;;;;;;;6.60;3.03;;;12.90;99.90;;;;;;5070577;28;20193;-79
2022/11/08 08:57:54;;;;;;;5.80;2.77;;;12.90;99.90;;;;;;5070474;28;20205;-79
2022/11/08 09:00:22;;;;;;;4.77;2.57;;;13.00;99.90;;;;;;5068924;28;20197;-79
2022/11/08 09:02:49;;;;;;;3.33;2.57;;;13.00;99.90;;;;;;5100654;28;20732;-78
2022/11/08 09:05:16;;;;;;;2.60;2.00;;;13.10;99.90;;;;;;5067066;28;20590;-78
2022/11/08 09:07:44;;;;;;;6.03;2.63;;;13.10;99.90;;;;;;5070768;28;20195;-79
2022/11/08 09:10:11;;;;;;;5.10;2.83;;;13.20;99.90;;;;;;5067466;28;20205;-77
2022/11/08 09:12:39;;;;;;;4.80;3.20;;;13.20;99.90;;;;;;5068475;28;20218;-79
2022/11/08 09:15:08;;;;;;;11.37;3.60;;;13.30;99.90;;;;;;5069021;28;20235;-78
2022/11/08 09:17:36;;;;;;;5.07;3.17;;;13.30;99.90;;;;;;5069005;28;20194;-79
2022/11/08 09:20:03;;;;;;;9.40;3.80;;;13.40;99.90;;;;;;5067176;28;20199;-78
2022/11/08 09:22:32;;;;;;;5.07;3.53;;;13.40;99.90;;;;;;5068933;28;20225;-78
2022/11/08 09:25:00;;;;;;;6.90;3.43;;;13.50;99.90;;;;;;5068066;28;20213;-79
2022/11/08 09:27:28;;;;;;;9.60;3.80;;;13.50;99.90;;;;;;5066968;28;20195;-79
2022/11/08 09:29:55;;;;;;;6.87;3.70;;;13.60;99.90;;;;;;5082605;28;20209;-78
2022/11/08 09:32:26;;;;;;;5.67;3.70;;;13.70;99.90;;;;;;5067001;28;20281;-78
2022/11/08 09:34:54;;;;;;;6.63;3.67;;;13.70;99.90;;;;;;5068398;28;20191;-78
2022/11/08 09:37:22;;;;;;;6.83;3.50;;;13.80;99.90;;;;;;5069169;28;20200;-78
2022/11/08 09:39:49;;;;;;;8.47;3.57;;;13.80;99.90;;;;;;5083133;28;20226;-78
2022/11/08 09:42:39;;;;;;;6.47;3.50;;;13.90;99.90;;;;;;5064906;28;20206;-79
2022/11/08 09:45:21;;;;;;;3.60;3.00;;;14.00;99.90;;;;;;5066339;28;20266;-78
2022/11/08 09:47:55;;;;;;;8.30;3.20;;;14.20;99.90;;;;;;5074477;28;20605;-78
2022/11/08 09:50:31;;;;;;;8.37;3.73;;;14.40;99.90;;;;;;5067740;28;20201;-77
2022/11/08 09:53:06;;;;;;;5.27;3.23;;;14.50;99.90;;;;;;5068395;28;20528;-77
2022/11/08 09:55:37;;;;;;;10.43;4.10;;;14.50;99.90;;;;;;5066184;28;20538;-78
2022/11/08 09:58:15;;;;;;;6.60;3.10;;;14.60;99.90;;;;;;5067219;28;20205;-78
2022/11/08 10:00:42;;;;;;;7.07;3.63;;;14.60;99.90;;;;;;5065562;28;20350;-78
2022/11/08 10:03:14;;;;;;;6.57;3.73;;;14.60;99.90;;;;;;5066992;28;20216;-78
2022/11/08 10:05:47;;;;;;;9.40;3.20;;;14.70;99.90;;;;;;5068698;28;20200;-77
2022/11/08 10:08:27;;;;;;;7.53;3.80;;;14.70;99.90;;;;;;5068153;28;20203;-79
2022/11/08 10:11:17;;;;;;;7.37;3.70;;;14.60;99.90;;;;;;5065792;28;20219;-78
2022/11/08 10:14:01;;;;;;;7.80;3.53;;;14.50;99.90;;;;;;5055199;28;20238;-78
2022/11/08 10:16:36;;;;;;;5.13;3.07;;;14.50;99.90;;;;;;5069019;28;20207;-77
2022/11/08 10:19:27;;;;;;;8.53;4.10;;;14.60;99.90;;;;;;5066715;28;20203;-77
2022/11/08 10:21:59;;;;;;;9.23;4.13;;;14.90;99.90;;;;;;5067060;28;20286;-78
2022/11/08 10:24:34;;;;;;;7.03;4.13;;;15.20;99.90;;;;;;5067523;28;20189;-78
2022/11/08 10:27:03;;;;;;;8.30;3.73;;;15.20;99.90;;;;;;5065410;28;20208;-79
2022/11/08 10:29:36;;;;;;;6.17;3.53;;;15.20;99.90;;;;;;5067660;28;20197;-79
2022/11/08 10:32:14;;;;;;;5.73;3.10;;;15.20;99.90;;;;;;5067357;28;20250;-80
2022/11/08 10:34:49;;;;;;;5.77;3.30;;;15.20;99.90;;;;;;5066175;28;20569;-79
2022/11/08 10:37:17;;;;;;;5.23;3.10;;;15.20;99.90;;;;;;5067935;28;20486;-78
2022/11/08 10:39:53;;;;;;;4.17;2.70;;;15.10;99.90;;;;;;5067884;28;20246;-78
2022/11/08 10:42:25;;;;;;;4.10;2.47;;;15.10;99.90;;;;;;5068033;28;20218;-79
2022/11/08 10:44:53;;;;;;;3.90;2.60;;;15.10;99.90;;;;;;5068201;28;20200;-79
2022/11/08 10:47:25;;;;;;;3.47;2.40;;;15.10;99.90;;;;;;5066756;28;20197;-76
2022/11/08 10:49:54;;;;;;;7.00;2.83;;;15.10;99.90;;;;;;5070386;28;20189;-78
2022/11/08 10:52:30;;;;;;;2.47;1.90;;;15.10;99.90;;;;;;5069450;28;20208;-77
2022/11/08 10:54:59;;;;;;;4.57;2.50;;;15.10;99.90;;;;;;5066831;28;20295;-79
2022/11/08 10:57:37;;;;;;;4.97;2.77;;;15.20;99.90;;;;;;5083456;28;20541;-78
2022/11/08 11:00:26;;;;;;;5.37;2.40;;;15.20;99.90;;;;;;5071664;28;20197;-79
2022/11/08 11:02:56;;;;;;;3.03;2.10;;;15.20;99.90;;;;;;5068452;28;20313;-79
2022/11/08 11:05:32;;;;;;;7.87;3.13;;;15.20;99.90;;;;;;5099273;28;20204;-79
2022/11/08 11:08:16;;;;;;;5.07;2.70;;;15.20;99.90;;;;;;5071792;28;20211;-79
2022/11/08 11:10:47;;;;;;;5.97;3.03;;;15.20;99.90;;;;;;5071525;28;20237;-80
2022/11/08 11:13:19;;;;;;;4.83;3.30;;;15.20;99.90;;;;;;5085703;28;20213;-79
2022/11/08 11:15:49;;;;;;;5.43;2.80;;;15.20;99.90;;;;;;5071909;28;20193;-80
2022/11/08 11:18:25;;;;;;;9.87;3.13;;;15.20;99.90;;;;;;5071496;28;20189;-78
2022/11/08 11:21:07;;;;;;;5.63;2.90;;;15.30;99.90;;;;;;5071929;28;20250;-79
2022/11/08 11:23:41;;;;;;;6.13;2.80;;;15.30;99.90;;;;;;5069537;28;20189;-78
2022/11/08 11:26:27;;;;;;;5.13;2.37;;;15.30;99.90;;;;;;5070792;28;20193;-78
2022/11/08 11:29:22;;;;;;;5.00;2.50;;;15.30;99.90;;;;;;5067418;28;20189;-81
2022/11/08 11:31:51;;;;;;;4.50;2.20;;;15.30;99.90;;;;;;5065514;28;20269;-79
2022/11/08 11:34:41;;;;;;;4.40;2.10;;;15.30;99.90;;;;;;5066792;28;20209;-80
2022/11/08 11:37:19;;;;;;;1.63;1.53;;;15.30;99.90;;;;;;5079657;28;20320;-78
2022/11/08 11:39:58;;;;;;;2.57;2.23;;;15.30;99.90;;;;;;5067424;28;20193;-81
2022/11/08 11:42:32;;;;;;;3.93;2.07;;;15.30;99.90;;;;;;5066856;28;21031;-79
2022/11/08 11:45:09;;;;;;;3.20;2.10;;;15.30;99.90;;;;;;5065360;28;20189;-81
2022/11/08 11:47:46;;;;;;;2.07;1.93;;;15.30;99.90;;;;;;5066227;28;20262;-80
2022/11/08 11:50:24;;;;;;;9.43;2.87;;;15.30;99.90;;;;;;5082406;28;20197;-80
2022/11/08 11:52:52;;;;;;;8.20;2.30;;;15.30;99.90;;;;;;5064547;28;20201;-78
2022/11/08 11:55:23;;;;;;;3.50;2.37;;;15.40;99.90;;;;;;5065394;28;20185;-79
2022/11/08 11:58:05;;;;;;;4.37;2.10;;;15.40;99.90;;;;;;5064328;28;20213;-79
2022/11/08 12:00:41;;;;;;;2.57;2.00;;;15.40;99.90;;;;;;5066348;28;20281;-81
2022/11/08 12:03:28;;;;;;;3.00;2.10;;;15.40;99.90;;;;;;5068593;28;20225;-78
2022/11/08 12:06:11;;;;;;;3.03;2.07;;;15.40;99.90;;;;;;5069767;28;20185;-79
2022/11/08 12:08:53;;;;;;;2.83;2.07;;;15.40;99.90;;;;;;5069621;28;20195;-79
2022/11/08 12:11:38;;;;;;;5.13;2.20;;;15.40;99.90;;;;;;5067779;28;20193;-80
2022/11/08 12:14:30;;;;;;;6.10;2.70;;;15.40;99.90;;;;;;5085544;28;20558;-80
2022/11/08 12:17:08;;;;;;;2.83;2.10;;;15.30;99.90;;;;;;5070671;28;20462;-80
2022/11/08 12:19:44;;;;;;;4.27;2.50;;;15.30;99.90;;;;;;5062766;28;20311;-78
2022/11/08 12:22:31;;;;;;;4.40;2.13;;;15.30;99.90;;;;;;5072164;28;20247;-78
2022/11/08 12:25:10;;;;;;;3.57;2.13;;;15.30;99.90;;;;;;5071800;28;20727;-79
2022/11/08 12:27:50;;;;;;;4.10;1.97;;;15.30;99.90;;;;;;5071930;28;20192;-80
2022/11/08 12:30:21;;;;;;;3.80;2.10;;;15.30;99.90;;;;;;5071197;28;20652;-78
2022/11/08 12:33:20;;;;;;;4.23;2.10;;;15.30;99.90;;;;;;5085688;28;20663;-81
2022/11/08 12:35:58;;;;;;;3.83;2.23;;;15.30;99.90;;;;;;5071265;28;20712;-79
2022/11/08 12:38:32;;;;;;;2.60;1.53;;;15.30;99.90;;;;;;5070632;28;20193;-78
2022/11/08 12:41:11;;;;;;;2.17;1.97;;;15.30;99.90;;;;;;5071341;28;20193;-80
2022/11/08 12:44:16;;;;;;;4.60;2.30;;;15.30;99.90;;;;;;5071587;28;20189;-80
2022/11/08 12:47:07;;;;;;;4.67;2.33;;;15.30;99.90;;;;;;5053986;28;20311;-81
2022/11/08 12:49:42;;;;;;;3.73;2.30;;;15.30;99.90;;;;;;5087006;28;20275;-80
2022/11/08 12:52:21;;;;;;;2.50;1.70;;;15.30;99.90;;;;;;5072303;28;20192;-80
2022/11/08 12:54:53;;;;;;;4.07;2.10;;;15.40;99.90;;;;;;5070930;28;20197;-79
2022/11/08 12:57:26;;;;;;;6.27;2.40;;;15.30;99.90;;;;;;5071021;28;20186;-79
2022/11/08 13:00:02;;;;;;;3.30;2.50;;;15.40;99.90;;;;;;5072150;28;20224;-79
2022/11/08 13:02:33;;;;;;;4.47;2.40;;;15.40;99.90;;;;;;5071281;28;20239;-79
2022/11/08 13:05:07;;;;;;;5.87;2.67;;;15.40;99.90;;;;;;5071921;28;20287;-78
2022/11/08 13:07:41;;;;;;;4.50;2.30;;;15.40;99.90;;;;;;5070618;28;20213;-81
2022/11/08 13:10:18;;;;;;;3.63;2.13;;;15.40;99.90;;;;;;5065998;28;20191;-80
2022/11/08 13:12:59;;;;;;;4.00;2.27;;;15.50;99.90;;;;;;5070571;28;20564;-79
2022/11/08 13:15:27;;;;;;;3.17;2.00;;;15.50;99.90;;;;;;5070179;28;20205;-81
2022/11/08 13:18:25;;;;;;;2.30;1.97;;;15.50;99.90;;;;;;5071386;28;20224;-81
2022/11/08 13:20:52;;;;;;;3.47;1.60;;;15.50;99.90;;;;;;5070562;28;20572;-79